createdAt,value
2023-04-09T00:01:48.419Z,99.90
2023-04-09T00:03:50.336Z,99.90
2023-04-09T00:05:52.437Z,99.90
2023-04-09T00:07:54.094Z,99.90
2023-04-09T00:09:56.448Z,99.90
2023-04-09T00:11:58.252Z,99.90
2023-04-09T00:14:00.174Z,99.90
2023-04-09T00:16:02.102Z,99.90
2023-04-09T00:18:03.797Z,99.90
2023-04-09T00:20:05.986Z,99.90
2023-04-09T00:22:07.653Z,99.90
2023-04-09T00:24:09.299Z,99.90
2023-04-09T00:26:10.984Z,99.90
2023-04-09T00:28:12.605Z,99.90
2023-04-09T00:30:14.244Z,99.90
2023-04-09T00:32:15.834Z,99.90
2023-04-09T00:34:17.441Z,99.90
2023-04-09T00:36:19.048Z,99.90
2023-04-09T00:38:20.973Z,99.90
2023-04-09T00:40:22.713Z,99.90
2023-04-09T00:42:24.332Z,99.90
2023-04-09T00:44:26.163Z,99.90
2023-04-09T00:46:27.810Z,99.90
2023-04-09T00:48:29.490Z,99.90
2023-04-09T00:50:31.131Z,99.90
2023-04-09T00:52:33.024Z,99.90
2023-04-09T00:54:34.733Z,99.90
2023-04-09T00:56:36.906Z,99.90
2023-04-09T00:58:40.208Z,99.90
2023-04-09T01:00:41.875Z,99.90
2023-04-09T01:02:43.855Z,99.90
2023-04-09T01:04:45.634Z,99.90
2023-04-09T01:06:55.682Z,99.90
2023-04-09T01:09:02.883Z,99.90
2023-04-09T01:11:16.185Z,99.90
2023-04-09T01:13:28.489Z,99.90
2023-04-09T01:15:33.716Z,99.90
2023-04-09T01:17:44.186Z,99.90
2023-04-09T01:19:54.640Z,99.90
2023-04-09T01:21:56.394Z,99.90
2023-04-09T01:24:02.677Z,99.90
2023-04-09T01:26:22.965Z,99.90
2023-04-09T01:28:31.727Z,99.90
2023-04-09T01:30:33.542Z,99.90
2023-04-09T01:32:37.151Z,99.90
2023-04-09T01:34:39.535Z,99.90
2023-04-09T01:36:41.926Z,99.90
2023-04-09T01:38:44.869Z,99.90
2023-04-09T01:40:46.778Z,99.90
2023-04-09T01:42:49.475Z,99.90
2023-04-09T01:44:51.965Z,99.90
2023-04-09T01:46:54.436Z,99.90
2023-04-09T01:48:56.908Z,99.90
2023-04-09T01:50:59.129Z,99.90
2023-04-09T01:53:01.580Z,99.90
2023-04-09T01:55:03.342Z,99.90
2023-04-09T01:57:04.933Z,99.90
2023-04-09T01:59:06.549Z,99.90
2023-04-09T02:01:12.052Z,99.90
2023-04-09T02:03:16.533Z,99.90
2023-04-09T02:05:19.001Z,99.90
2023-04-09T02:07:20.607Z,99.90
2023-04-09T02:09:24.272Z,99.90
2023-04-09T02:11:26.887Z,99.90
2023-04-09T02:13:29.636Z,99.90
2023-04-09T02:15:31.717Z,99.90
2023-04-09T02:17:33.648Z,99.90
2023-04-09T02:19:39.032Z,99.90
2023-04-09T02:21:40.683Z,99.90
2023-04-09T02:23:42.344Z,99.90
2023-04-09T02:25:44.212Z,99.90
2023-04-09T02:27:45.824Z,99.90
2023-04-09T02:29:47.439Z,99.90
2023-04-09T02:31:50.073Z,99.90
2023-04-09T02:33:51.713Z,99.90
2023-04-09T02:35:53.372Z,99.90
2023-04-09T02:37:55.690Z,99.90
2023-04-09T02:39:57.356Z,99.90
2023-04-09T02:41:59.052Z,99.90
2023-04-09T02:44:00.610Z,99.90
2023-04-09T02:46:02.364Z,99.90
2023-04-09T02:48:04.320Z,99.90
2023-04-09T02:50:06.245Z,99.90
2023-04-09T02:52:09.677Z,99.90
2023-04-09T02:54:11.331Z,99.90
2023-04-09T02:56:12.966Z,99.90
2023-04-09T02:58:14.565Z,99.90
2023-04-09T03:00:16.353Z,99.90
2023-04-09T03:02:18.168Z,99.90
2023-04-09T03:04:19.924Z,99.90
2023-04-09T03:06:21.585Z,99.90
2023-04-09T03:08:23.209Z,99.90
2023-04-09T03:10:24.906Z,99.90
2023-04-09T03:12:26.569Z,99.90
2023-04-09T03:14:28.405Z,99.90
2023-04-09T03:16:30.028Z,99.90
2023-04-09T03:18:31.731Z,99.90
2023-04-09T03:20:33.422Z,99.90
2023-04-09T03:22:38.468Z,99.90
2023-04-09T03:24:40.234Z,99.90
2023-04-09T03:26:41.832Z,99.90
2023-04-09T03:28:43.416Z,99.90
2023-04-09T03:30:45.017Z,99.90
2023-04-09T03:32:46.659Z,99.90
2023-04-09T03:34:48.325Z,99.90
2023-04-09T03:36:50.034Z,99.90
2023-04-09T03:38:52.029Z,99.90
2023-04-09T03:40:53.745Z,99.90
2023-04-09T03:42:55.520Z,99.90
2023-04-09T03:44:57.138Z,99.90
2023-04-09T03:46:58.800Z,99.90
2023-04-09T03:49:00.636Z,99.90
2023-04-09T03:51:02.244Z,99.90
2023-04-09T03:53:03.892Z,99.90
2023-04-09T03:55:05.961Z,99.90
2023-04-09T03:57:07.556Z,99.90
2023-04-09T03:59:09.166Z,99.90
2023-04-09T04:01:10.927Z,99.90
2023-04-09T04:03:14.739Z,99.90
2023-04-09T04:05:16.707Z,99.90
2023-04-09T04:07:18.327Z,99.90
2023-04-09T04:09:19.947Z,99.90
2023-04-09T04:11:21.562Z,99.90
2023-04-09T04:13:23.264Z,99.90
2023-04-09T04:15:24.915Z,99.90
2023-04-09T04:17:26.551Z,99.90
2023-04-09T04:19:28.239Z,99.90
2023-04-09T04:21:29.835Z,99.90
2023-04-09T04:23:31.410Z,99.90
2023-04-09T04:25:33.012Z,99.90
2023-04-09T04:27:34.610Z,99.90
2023-04-09T04:29:37.532Z,99.90
2023-04-09T04:31:39.203Z,99.90
2023-04-09T04:33:41.446Z,99.90
2023-04-09T04:35:43.157Z,99.90
2023-04-09T04:37:44.763Z,99.90
2023-04-09T04:39:46.391Z,99.90
2023-04-09T04:41:48.036Z,99.90
2023-04-09T04:43:49.689Z,99.90
2023-04-09T04:45:53.543Z,99.90
2023-04-09T04:47:55.532Z,99.90
2023-04-09T04:49:57.221Z,99.90
2023-04-09T04:51:58.936Z,99.90
2023-04-09T04:54:00.579Z,99.90
2023-04-09T04:56:02.129Z,99.90
2023-04-09T04:58:03.755Z,99.90
2023-04-09T05:00:05.586Z,99.90
2023-04-09T05:02:07.584Z,99.90
2023-04-09T05:04:09.226Z,99.90
2023-04-09T05:06:10.827Z,99.90
2023-04-09T05:08:12.481Z,99.90
2023-04-09T05:10:14.101Z,99.90
2023-04-09T05:12:17.877Z,99.90
2023-04-09T05:14:21.407Z,99.90
2023-04-09T05:16:23.112Z,99.90
2023-04-09T05:18:24.731Z,99.90
2023-04-09T05:20:27.478Z,99.90
2023-04-09T05:22:29.100Z,99.90
2023-04-09T05:24:30.680Z,99.90
2023-04-09T05:26:32.292Z,99.90
2023-04-09T05:28:33.972Z,99.90
2023-04-09T05:30:35.668Z,99.90
2023-04-09T05:32:37.389Z,99.90
2023-04-09T05:34:39.024Z,99.90
2023-04-09T05:36:41.154Z,99.90
2023-04-09T05:38:43.221Z,99.90
2023-04-09T05:40:45.770Z,99.90
2023-04-09T05:42:47.460Z,99.90
2023-04-09T05:44:49.127Z,99.90
2023-04-09T05:46:50.824Z,99.90
2023-04-09T05:48:52.636Z,99.90
2023-04-09T05:50:55.727Z,99.90
2023-04-09T05:52:57.643Z,99.90
2023-04-09T05:54:59.282Z,99.90
2023-04-09T05:57:01.114Z,99.90
2023-04-09T05:59:02.745Z,99.90
2023-04-09T06:01:04.360Z,99.90
2023-04-09T06:03:06.019Z,99.90
2023-04-09T06:05:08.188Z,99.90
2023-04-09T06:07:09.802Z,99.90
2023-04-09T06:09:11.412Z,99.90
2023-04-09T06:11:13.096Z,99.90
2023-04-09T06:13:14.868Z,99.90
2023-04-09T06:15:16.709Z,99.90
2023-04-09T06:17:18.293Z,99.90
2023-04-09T06:19:19.962Z,99.90
2023-04-09T06:21:21.610Z,99.90
2023-04-09T06:23:23.187Z,99.90
2023-04-09T06:25:24.893Z,99.90
2023-04-09T06:27:27.078Z,99.90
2023-04-09T06:29:29.470Z,99.90
2023-04-09T06:31:31.162Z,99.90
2023-04-09T06:33:32.792Z,99.90
2023-04-09T06:35:34.480Z,99.90
2023-04-09T06:37:36.225Z,99.90
2023-04-09T06:39:40.403Z,99.90
2023-04-09T06:41:44.123Z,99.90
2023-04-09T06:43:45.926Z,99.90
2023-04-09T06:45:47.576Z,99.90
2023-04-09T06:47:49.341Z,99.90
2023-04-09T06:49:51.231Z,99.90
2023-04-09T06:51:56.097Z,99.90
2023-04-09T06:53:57.717Z,99.90
2023-04-09T06:55:59.312Z,99.90
2023-04-09T06:58:02.612Z,99.90
2023-04-09T07:00:04.548Z,99.90
2023-04-09T07:02:06.809Z,99.90
2023-04-09T07:04:08.603Z,99.90
2023-04-09T07:06:10.228Z,99.90
2023-04-09T07:08:12.492Z,99.90
2023-04-09T07:10:14.135Z,99.90
2023-04-09T07:12:32.114Z,99.90
2023-04-09T07:14:36.901Z,99.90
2023-04-09T07:16:38.569Z,99.90
2023-04-09T07:18:40.278Z,99.90
2023-04-09T07:20:41.908Z,99.90
2023-04-09T07:22:43.578Z,99.90
2023-04-09T07:24:45.451Z,99.90
2023-04-09T07:26:47.038Z,99.90
2023-04-09T07:28:48.672Z,99.90
2023-04-09T07:30:50.524Z,99.90
2023-04-09T07:32:52.144Z,99.90
2023-04-09T07:34:54.430Z,99.90
2023-04-09T07:36:56.117Z,99.90
2023-04-09T07:38:57.732Z,99.90
2023-04-09T07:40:59.437Z,99.90
2023-04-09T07:43:01.004Z,99.90
2023-04-09T07:45:03.472Z,99.90
2023-04-09T07:47:06.996Z,99.90
2023-04-09T07:49:08.646Z,99.90
2023-04-09T07:51:11.349Z,99.90
2023-04-09T07:53:13.036Z,99.90
2023-04-09T07:55:16.244Z,99.90
2023-04-09T07:57:18.485Z,99.90
2023-04-09T07:59:20.108Z,99.90
2023-04-09T08:01:24.658Z,99.90
2023-04-09T08:03:26.468Z,99.90
2023-04-09T08:05:28.915Z,99.90
2023-04-09T08:07:30.648Z,99.90
2023-04-09T08:09:32.428Z,99.90
2023-04-09T08:11:34.164Z,99.90
2023-04-09T08:13:35.784Z,99.90
2023-04-09T08:15:37.872Z,99.90
2023-04-09T08:17:39.555Z,99.90
2023-04-09T08:19:42.091Z,99.90
2023-04-09T08:21:44.300Z,99.90
2023-04-09T08:23:46.028Z,99.90
2023-04-09T08:25:47.659Z,99.90
2023-04-09T08:27:49.329Z,99.90
2023-04-09T08:29:51.067Z,99.90
2023-04-09T08:31:52.820Z,99.90
2023-04-09T08:33:54.496Z,99.90
2023-04-09T08:35:56.349Z,99.90
2023-04-09T08:37:59.054Z,99.90
2023-04-09T08:40:00.656Z,99.90
2023-04-09T08:42:02.604Z,99.90
2023-04-09T08:44:04.373Z,99.90
2023-04-09T08:46:06.035Z,99.90
2023-04-09T08:48:09.437Z,99.90
2023-04-09T08:50:11.240Z,99.90
2023-04-09T08:52:12.897Z,99.90
2023-04-09T08:54:15.829Z,99.90
2023-04-09T08:56:17.462Z,99.90
2023-04-09T08:58:19.126Z,99.90
2023-04-09T09:00:20.987Z,99.90
2023-04-09T09:02:24.200Z,99.90
2023-04-09T09:04:26.229Z,99.90
2023-04-09T09:06:29.986Z,99.90
2023-04-09T09:08:31.668Z,99.90
2023-04-09T09:10:40.733Z,99.90
2023-04-09T09:12:43.014Z,99.90
2023-04-09T09:14:44.683Z,99.90
2023-04-09T09:16:55.447Z,99.90
2023-04-09T09:18:57.503Z,99.90
2023-04-09T09:21:15.729Z,99.90
2023-04-09T09:23:34.153Z,99.90
2023-04-09T09:25:39.080Z,99.90
2023-04-09T09:27:41.014Z,99.90
2023-04-09T09:29:44.850Z,99.90
2023-04-09T09:31:49.046Z,99.90
2023-04-09T09:33:51.142Z,99.90
2023-04-09T09:35:54.302Z,99.90
2023-04-09T09:38:05.295Z,99.90
2023-04-09T09:40:07.822Z,99.90
2023-04-09T09:42:09.539Z,99.90
2023-04-09T09:44:12.223Z,99.90
2023-04-09T09:46:14.826Z,99.90
2023-04-09T09:48:16.523Z,99.90
2023-04-09T09:50:18.444Z,99.90
2023-04-09T09:52:26.944Z,99.90
2023-04-09T09:54:31.361Z,99.90
2023-04-09T09:56:37.723Z,99.90
2023-04-09T09:58:45.256Z,99.90
2023-04-09T10:00:48.379Z,99.90
2023-04-09T10:02:56.636Z,99.90
2023-04-09T10:05:00.712Z,99.90
2023-04-09T10:07:03.928Z,99.90
2023-04-09T10:09:06.745Z,99.90
2023-04-09T10:11:08.869Z,99.90
2023-04-09T10:13:29.574Z,99.90
2023-04-09T10:15:31.759Z,99.90
2023-04-09T10:17:33.369Z,99.90
2023-04-09T10:19:38.179Z,99.90
2023-04-09T10:21:45.670Z,99.90
2023-04-09T10:23:49.412Z,99.90
2023-04-09T10:25:51.435Z,99.90
2023-04-09T10:28:00.051Z,99.90
2023-04-09T10:30:01.899Z,99.90
2023-04-09T10:32:07.071Z,99.90
2023-04-09T10:34:10.841Z,99.90
2023-04-09T10:36:13.193Z,99.90
2023-04-09T10:38:15.278Z,99.90
2023-04-09T10:40:21.693Z,99.90
2023-04-09T10:42:27.074Z,99.90
2023-04-09T10:44:31.318Z,99.90
2023-04-09T10:46:36.882Z,99.90
2023-04-09T10:48:38.612Z,99.90
2023-04-09T10:50:42.726Z,99.90
2023-04-09T10:52:44.719Z,99.90
2023-04-09T10:54:47.049Z,99.90
2023-04-09T10:57:07.426Z,99.90
2023-04-09T10:59:09.270Z,99.90
2023-04-09T11:01:10.898Z,99.90
2023-04-09T11:03:21.898Z,99.90
2023-04-09T11:05:32.817Z,99.90
2023-04-09T11:07:36.899Z,99.90
2023-04-09T11:09:38.536Z,99.90
2023-04-09T11:11:40.680Z,99.90
2023-04-09T11:13:43.123Z,99.90
2023-04-09T11:15:45.879Z,99.90
2023-04-09T11:17:48.237Z,99.90
2023-04-09T11:19:49.928Z,99.90
2023-04-09T11:21:51.552Z,99.90
2023-04-09T11:23:53.311Z,99.90
2023-04-09T11:25:56.068Z,99.90
2023-04-09T11:27:57.929Z,99.90
2023-04-09T11:29:59.520Z,99.90
2023-04-09T11:32:01.314Z,99.90
2023-04-09T11:34:03.250Z,97.90
2023-04-09T11:36:06.401Z,97.30
2023-04-09T11:38:08.794Z,93.50
2023-04-09T11:40:23.579Z,91.90
2023-04-09T11:42:28.213Z,91.10
2023-04-09T11:44:31.213Z,91.30
2023-04-09T11:46:33.388Z,90.20
2023-04-09T11:48:35.715Z,86.90
2023-04-09T11:50:37.722Z,84.40
2023-04-09T11:52:40.228Z,86.60
2023-04-09T11:54:41.988Z,83.10
2023-04-09T11:56:43.636Z,81.80
2023-04-09T11:58:47.332Z,80.50
2023-04-09T12:00:49.086Z,81.40
2023-04-09T12:02:59.282Z,79.30
2023-04-09T12:05:03.929Z,77.20
2023-04-09T12:07:08.590Z,74.00
2023-04-09T12:09:13.594Z,77.90
2023-04-09T12:11:16.041Z,79.10
2023-04-09T12:13:17.700Z,80.60
2023-04-09T12:15:22.301Z,82.90
2023-04-09T12:17:24.256Z,82.00
2023-04-09T12:19:26.272Z,78.60
2023-04-09T12:21:44.979Z,80.70
2023-04-09T12:23:46.568Z,75.50
2023-04-09T12:25:48.320Z,77.50
2023-04-09T12:27:50.285Z,77.30
2023-04-09T12:29:51.871Z,72.80
2023-04-09T12:31:54.028Z,75.40
2023-04-09T12:33:56.199Z,68.90
2023-04-09T12:35:58.470Z,64.70
2023-04-09T12:38:00.678Z,66.20
2023-04-09T12:40:02.328Z,73.60
2023-04-09T12:42:04.198Z,73.60
2023-04-09T12:44:07.530Z,66.10
2023-04-09T12:46:09.451Z,64.80
2023-04-09T12:48:11.757Z,69.30
2023-04-09T12:50:15.072Z,69.70
2023-04-09T12:52:18.513Z,70.60
2023-04-09T12:54:20.456Z,72.40
2023-04-09T12:56:22.018Z,74.20
2023-04-09T12:58:24.421Z,69.00
2023-04-09T13:00:31.053Z,65.00
2023-04-09T13:02:33.322Z,65.10
2023-04-09T13:04:38.181Z,65.40
2023-04-09T13:06:39.891Z,62.90
2023-04-09T13:08:41.566Z,66.20
2023-04-09T13:10:43.827Z,61.40
2023-04-09T13:12:45.556Z,69.50
2023-04-09T13:14:48.293Z,61.80
2023-04-09T13:16:50.184Z,62.90
2023-04-09T13:18:52.595Z,60.30
2023-04-09T13:20:54.438Z,62.40
2023-04-09T13:22:56.240Z,59.50
2023-04-09T13:24:57.860Z,60.60
2023-04-09T13:26:59.426Z,62.10
2023-04-09T13:29:01.851Z,58.60
2023-04-09T13:31:05.824Z,59.60
2023-04-09T13:33:07.583Z,61.30
2023-04-09T13:35:10.235Z,60.10
2023-04-09T13:37:11.857Z,59.20
2023-04-09T13:39:13.438Z,58.50
2023-04-09T13:41:15.499Z,57.40
2023-04-09T13:43:17.184Z,60.60
2023-04-09T13:45:20.625Z,56.60
2023-04-09T13:47:23.926Z,56.10
2023-04-09T13:49:27.447Z,57.20
2023-04-09T13:51:30.016Z,54.70
2023-04-09T13:53:31.823Z,54.50
2023-04-09T13:55:33.476Z,56.50
2023-04-09T13:57:35.228Z,58.10
2023-04-09T13:59:38.067Z,57.00
2023-04-09T14:01:39.947Z,61.90
2023-04-09T14:03:43.168Z,62.30
2023-04-09T14:05:44.952Z,58.50
2023-04-09T14:07:46.588Z,61.30
2023-04-09T14:09:48.373Z,58.60
2023-04-09T14:11:50.904Z,59.90
2023-04-09T14:13:52.965Z,63.60
2023-04-09T14:15:54.962Z,61.40
2023-04-09T14:17:56.820Z,66.50
2023-04-09T14:19:59.081Z,59.40
2023-04-09T14:22:00.777Z,63.10
2023-04-09T14:24:02.420Z,63.60
2023-04-09T14:26:05.354Z,66.30
2023-04-09T14:28:07.070Z,67.00
2023-04-09T14:30:12.508Z,63.20
2023-04-09T14:32:14.194Z,61.50
2023-04-09T14:34:15.850Z,64.20
2023-04-09T14:36:17.659Z,61.10
2023-04-09T14:38:19.293Z,65.00
2023-04-09T14:40:21.023Z,66.90
2023-04-09T14:42:22.778Z,65.30
2023-04-09T14:44:27.168Z,68.90
2023-04-09T14:46:28.790Z,65.10
2023-04-09T14:48:30.421Z,64.30
2023-04-09T14:50:33.867Z,65.10
2023-04-09T14:52:35.931Z,60.20
2023-04-09T14:54:37.819Z,60.00
2023-04-09T14:56:39.515Z,57.20
2023-04-09T14:58:41.184Z,56.40
2023-04-09T15:00:44.885Z,56.50
2023-04-09T15:02:47.793Z,53.70
2023-04-09T15:04:50.063Z,54.50
2023-04-09T15:06:52.078Z,56.10
2023-04-09T15:08:54.084Z,55.30
2023-04-09T15:10:56.136Z,54.20
2023-04-09T15:12:57.734Z,54.10
2023-04-09T15:14:59.511Z,56.50
2023-04-09T15:17:01.145Z,59.40
2023-04-09T15:19:03.266Z,60.50
2023-04-09T15:21:05.465Z,63.10
2023-04-09T15:23:07.166Z,67.30
2023-04-09T15:25:08.934Z,64.50
2023-04-09T15:27:10.579Z,62.00
2023-04-09T15:29:12.197Z,61.70
2023-04-09T15:31:13.901Z,57.90
2023-04-09T15:33:15.578Z,55.50
2023-04-09T15:35:23.946Z,55.80
2023-04-09T15:37:25.805Z,55.10
2023-04-09T15:39:28.471Z,55.10
2023-04-09T15:41:32.275Z,53.50
2023-04-09T15:43:34.031Z,54.10
2023-04-09T15:45:35.758Z,52.90
2023-04-09T15:47:37.374Z,54.30
2023-04-09T15:49:39.106Z,54.70
2023-04-09T15:51:40.728Z,57.30
2023-04-09T15:53:42.474Z,56.00
2023-04-09T15:55:44.122Z,58.80
2023-04-09T15:57:47.026Z,58.70
2023-04-09T15:59:48.922Z,58.00
2023-04-09T16:01:50.634Z,57.30
2023-04-09T16:03:52.689Z,56.80
2023-04-09T16:05:54.356Z,59.40
2023-04-09T16:07:57.652Z,58.50
2023-04-09T16:10:01.997Z,55.60
2023-04-09T16:12:03.726Z,56.80
2023-04-09T16:14:05.435Z,57.70
2023-04-09T16:16:08.157Z,55.30
2023-04-09T16:18:11.579Z,56.30
2023-04-09T16:20:13.278Z,55.70
2023-04-09T16:22:15.057Z,56.40
2023-04-09T16:24:16.682Z,55.80
2023-04-09T16:26:18.367Z,54.50
2023-04-09T16:28:21.680Z,56.10
2023-04-09T16:30:23.388Z,54.50
2023-04-09T16:32:25.390Z,55.70
2023-04-09T16:34:27.153Z,53.80
2023-04-09T16:36:29.470Z,53.80
2023-04-09T16:38:31.458Z,54.40
2023-04-09T16:40:33.244Z,55.10
2023-04-09T16:42:34.852Z,54.00
2023-04-09T16:44:36.592Z,54.70
2023-04-09T16:46:38.208Z,56.80
2023-04-09T16:48:41.816Z,56.40
2023-04-09T16:50:43.635Z,56.20
2023-04-09T16:52:46.006Z,56.70
2023-04-09T16:54:47.744Z,57.30
2023-04-09T16:56:49.470Z,60.60
2023-04-09T16:58:51.675Z,64.30
2023-04-09T17:00:53.517Z,66.50
2023-04-09T17:02:56.465Z,66.00
2023-04-09T17:04:58.474Z,70.60
2023-04-09T17:07:00.476Z,68.90
2023-04-09T17:09:05.216Z,68.50
2023-04-09T17:11:07.164Z,70.80
2023-04-09T17:13:08.884Z,71.20
2023-04-09T17:15:11.157Z,71.80
2023-04-09T17:17:12.864Z,74.30
2023-04-09T17:19:17.259Z,72.40
2023-04-09T17:21:18.910Z,73.40
2023-04-09T17:23:21.734Z,73.20
2023-04-09T17:25:23.774Z,75.00
2023-04-09T17:27:25.466Z,73.70
2023-04-09T17:29:27.109Z,75.40
2023-04-09T17:31:28.961Z,75.80
2023-04-09T17:33:30.590Z,78.00
2023-04-09T17:35:32.750Z,78.70
2023-04-09T17:37:34.617Z,80.30
2023-04-09T17:39:36.904Z,80.70
2023-04-09T17:41:38.501Z,78.70
2023-04-09T17:43:40.093Z,80.60
2023-04-09T17:45:42.527Z,78.90
2023-04-09T17:47:44.363Z,81.10
2023-04-09T17:49:47.750Z,80.60
2023-04-09T17:51:49.346Z,81.30
2023-04-09T17:53:53.540Z,83.80
2023-04-09T17:55:55.153Z,83.10
2023-04-09T17:57:56.778Z,83.80
2023-04-09T17:59:58.409Z,85.10
2023-04-09T18:02:00.922Z,86.00
2023-04-09T18:04:02.934Z,87.80
2023-04-09T18:06:04.913Z,85.40
2023-04-09T18:08:07.275Z,88.00
2023-04-09T18:10:09.295Z,86.90
2023-04-09T18:12:10.880Z,90.20
2023-04-09T18:14:12.602Z,90.20
2023-04-09T18:16:14.295Z,90.70
2023-04-09T18:18:15.989Z,90.70
2023-04-09T18:20:17.678Z,89.60
2023-04-09T18:22:19.306Z,90.20
2023-04-09T18:24:20.904Z,90.70
2023-04-09T18:26:22.884Z,90.80
2023-04-09T18:28:24.525Z,91.80
2023-04-09T18:30:26.349Z,92.60
2023-04-09T18:32:28.085Z,93.00
2023-04-09T18:34:29.780Z,93.00
2023-04-09T18:36:31.415Z,93.40
2023-04-09T18:38:33.047Z,94.50
2023-04-09T18:40:40.624Z,95.00
2023-04-09T18:42:42.247Z,96.60
2023-04-09T18:44:45.425Z,96.50
2023-04-09T18:46:47.169Z,97.00
2023-04-09T18:48:48.835Z,98.80
2023-04-09T18:50:50.513Z,99.70
2023-04-09T18:52:53.024Z,99.90
2023-04-09T18:54:54.684Z,99.90
2023-04-09T18:56:57.414Z,99.90
2023-04-09T18:58:59.124Z,99.90
2023-04-09T19:01:01.445Z,99.90
2023-04-09T19:03:03.391Z,99.90
2023-04-09T19:05:07.271Z,99.90
2023-04-09T19:07:09.168Z,99.90
2023-04-09T19:09:10.860Z,99.90
2023-04-09T19:11:13.057Z,99.90
2023-04-09T19:13:14.714Z,99.90
2023-04-09T19:15:16.879Z,99.90
2023-04-09T19:17:18.555Z,99.90
2023-04-09T19:19:20.275Z,99.90
2023-04-09T19:21:22.477Z,99.90
2023-04-09T19:23:24.738Z,99.90
2023-04-09T19:25:27.195Z,99.90
2023-04-09T19:27:28.962Z,99.90
2023-04-09T19:29:30.697Z,99.90
2023-04-09T19:31:32.417Z,99.90
2023-04-09T19:33:34.134Z,99.90
2023-04-09T19:35:40.411Z,99.90
2023-04-09T19:37:42.525Z,99.90
2023-04-09T19:39:44.127Z,99.90
2023-04-09T19:41:45.716Z,99.90
2023-04-09T19:43:47.383Z,99.90
2023-04-09T19:45:48.963Z,99.90
2023-04-09T19:47:50.650Z,99.90
2023-04-09T19:49:52.252Z,99.90
2023-04-09T19:51:53.921Z,99.90
2023-04-09T19:53:56.017Z,99.90
2023-04-09T19:55:57.729Z,99.90
2023-04-09T19:57:59.425Z,99.90
2023-04-09T20:00:01.252Z,99.90
2023-04-09T20:02:03.249Z,99.90
2023-04-09T20:04:05.266Z,99.90
2023-04-09T20:06:08.490Z,99.90
2023-04-09T20:08:13.557Z,99.90
2023-04-09T20:10:17.448Z,99.90
2023-04-09T20:12:21.020Z,99.90
2023-04-09T20:14:22.787Z,99.90
2023-04-09T20:16:24.419Z,99.90
2023-04-09T20:18:26.080Z,99.90
2023-04-09T20:20:27.710Z,99.90
2023-04-09T20:22:29.516Z,99.90
2023-04-09T20:24:32.231Z,99.90
2023-04-09T20:26:33.877Z,99.90
2023-04-09T20:28:35.826Z,99.90
2023-04-09T20:30:37.622Z,99.90
2023-04-09T20:32:39.397Z,99.90
2023-04-09T20:34:41.040Z,99.90
2023-04-09T20:36:43.796Z,99.90
2023-04-09T20:38:45.779Z,99.90
2023-04-09T20:40:47.428Z,99.90
2023-04-09T20:42:49.122Z,99.90
2023-04-09T20:44:50.884Z,99.90
2023-04-09T20:46:52.544Z,99.90
2023-04-09T20:48:54.730Z,99.90
2023-04-09T20:50:56.768Z,99.90
2023-04-09T20:52:58.842Z,99.90
2023-04-09T20:55:00.814Z,99.90
2023-04-09T20:57:03.433Z,99.90
2023-04-09T20:59:05.038Z,99.90
2023-04-09T21:01:09.339Z,99.90
2023-04-09T21:03:11.294Z,99.90
2023-04-09T21:05:22.800Z,99.90
2023-04-09T21:07:25.395Z,99.90
2023-04-09T21:09:27.077Z,99.90
2023-04-09T21:11:29.011Z,99.90
2023-04-09T21:13:35.531Z,99.90
2023-04-09T21:15:42.226Z,99.90
2023-04-09T21:17:43.955Z,99.90
2023-04-09T21:19:45.827Z,99.90
2023-04-09T21:22:05.919Z,99.90
2023-04-09T21:24:08.018Z,99.90
2023-04-09T21:26:11.337Z,99.90
2023-04-09T21:28:12.967Z,99.90
2023-04-09T21:30:14.588Z,99.90
2023-04-09T21:32:16.337Z,99.90
2023-04-09T21:34:17.970Z,99.90
2023-04-09T21:36:19.698Z,99.90
2023-04-09T21:38:21.490Z,99.90
2023-04-09T21:40:23.498Z,99.90
2023-04-09T21:42:25.564Z,99.90
2023-04-09T21:44:27.224Z,99.90
2023-04-09T21:46:29.047Z,99.90
2023-04-09T21:48:31.115Z,99.90
2023-04-09T21:50:33.112Z,99.90
2023-04-09T21:52:35.138Z,99.90
2023-04-09T21:54:36.793Z,99.90
2023-04-09T21:56:38.899Z,99.90
2023-04-09T21:58:40.498Z,99.90
2023-04-09T22:00:42.869Z,99.90
2023-04-09T22:02:44.759Z,99.90
2023-04-09T22:04:46.660Z,99.90
2023-04-09T22:06:48.346Z,99.90
2023-04-09T22:08:56.402Z,99.90
2023-04-09T22:10:58.625Z,99.90
2023-04-09T22:13:00.235Z,99.90
2023-04-09T22:15:02.913Z,99.90
2023-04-09T22:17:04.735Z,99.90
2023-04-09T22:19:06.531Z,99.90
2023-04-09T22:21:08.139Z,99.90
2023-04-09T22:23:09.857Z,99.90
2023-04-09T22:25:12.306Z,99.90
2023-04-09T22:27:14.193Z,99.90
2023-04-09T22:29:15.910Z,99.90
2023-04-09T22:31:17.712Z,99.90
2023-04-09T22:33:19.332Z,99.90
2023-04-09T22:35:21.060Z,99.90
2023-04-09T22:37:22.669Z,99.90
2023-04-09T22:39:24.334Z,99.90
2023-04-09T22:41:26.326Z,99.90
2023-04-09T22:43:28.004Z,99.90
2023-04-09T22:45:30.583Z,99.90
2023-04-09T22:47:32.253Z,99.90
2023-04-09T22:49:33.833Z,99.90
2023-04-09T22:51:35.462Z,99.90
2023-04-09T22:53:37.066Z,99.90
2023-04-09T22:55:38.677Z,99.90
2023-04-09T22:57:42.887Z,99.90
2023-04-09T22:59:44.574Z,99.90
2023-04-09T23:01:46.367Z,99.90
2023-04-09T23:03:49.092Z,99.90
2023-04-09T23:05:51.038Z,99.90
2023-04-09T23:07:52.641Z,99.90
2023-04-09T23:09:57.323Z,99.90
2023-04-09T23:11:58.973Z,99.90
2023-04-09T23:14:00.614Z,99.90
2023-04-09T23:16:06.296Z,99.90
2023-04-09T23:18:08.154Z,99.90
2023-04-09T23:20:11.387Z,99.90
2023-04-09T23:22:13.024Z,99.90
2023-04-09T23:24:14.644Z,99.90
2023-04-09T23:26:16.277Z,99.90
2023-04-09T23:28:17.914Z,99.90
2023-04-09T23:30:21.603Z,99.90
2023-04-09T23:32:23.331Z,99.90
2023-04-09T23:34:24.915Z,99.90
2023-04-09T23:36:26.868Z,99.90
2023-04-09T23:38:28.505Z,99.90
2023-04-09T23:40:30.203Z,99.90
2023-04-09T23:42:33.792Z,99.90
2023-04-09T23:44:35.422Z,99.90
2023-04-09T23:46:37.187Z,99.90
2023-04-09T23:48:39.865Z,99.90
2023-04-09T23:50:41.616Z,99.90
2023-04-09T23:52:47.985Z,99.90
2023-04-09T23:54:52.194Z,99.90
2023-04-09T23:56:53.812Z,99.90
2023-04-09T23:58:55.428Z,99.90
